sensor_id;sensor_type;location;lat;lon;timestamp;temperature;humidity
69335;SHT31;56477;52.742;15.242;2024-03-08T00:02:15;0.07;88.11
69335;SHT31;56477;52.742;15.242;2024-03-08T00:04:41;0.06;87.96
69335;SHT31;56477;52.742;15.242;2024-03-08T00:07:08;0.07;87.96
69335;SHT31;56477;52.742;15.242;2024-03-08T00:09:33;0.10;88.12
69335;SHT31;56477;52.742;15.242;2024-03-08T00:11:59;0.13;88.39
69335;SHT31;56477;52.742;15.242;2024-03-08T00:14:25;0.14;88.15
69335;SHT31;56477;52.742;15.242;2024-03-08T00:16:51;0.11;88.00
69335;SHT31;56477;52.742;15.242;2024-03-08T00:19:19;0.10;88.22
69335;SHT31;56477;52.742;15.242;2024-03-08T00:21:45;0.07;88.24
69335;SHT31;56477;52.742;15.242;2024-03-08T00:24:11;0.03;88.56
69335;SHT31;56477;52.742;15.242;2024-03-08T00:26:37;-0.01;88.59
69335;SHT31;56477;52.742;15.242;2024-03-08T00:29:03;-0.01;88.67
69335;SHT31;56477;52.742;15.242;2024-03-08T00:31:29;0.02;88.85
69335;SHT31;56477;52.742;15.242;2024-03-08T00:33:56;-0.04;88.93
69335;SHT31;56477;52.742;15.242;2024-03-08T00:36:23;-0.05;88.92
69335;SHT31;56477;52.742;15.242;2024-03-08T00:38:48;-0.03;88.74
69335;SHT31;56477;52.742;15.242;2024-03-08T00:41:14;0.02;88.82
69335;SHT31;56477;52.742;15.242;2024-03-08T00:43:40;-0.04;89.02
69335;SHT31;56477;52.742;15.242;2024-03-08T00:46:06;-0.05;89.19
69335;SHT31;56477;52.742;15.242;2024-03-08T00:48:32;-0.08;89.28
69335;SHT31;56477;52.742;15.242;2024-03-08T00:50:58;-0.17;89.28
69335;SHT31;56477;52.742;15.242;2024-03-08T00:53:23;-0.25;89.24
69335;SHT31;56477;52.742;15.242;2024-03-08T00:55:49;-0.29;89.41
69335;SHT31;56477;52.742;15.242;2024-03-08T00:58:15;-0.33;89.57
69335;SHT31;56477;52.742;15.242;2024-03-08T01:00:41;-0.36;89.66
69335;SHT31;56477;52.742;15.242;2024-03-08T01:03:07;-0.38;89.59
69335;SHT31;56477;52.742;15.242;2024-03-08T01:05:33;-0.36;89.84
69335;SHT31;56477;52.742;15.242;2024-03-08T01:08:00;-0.36;89.79
69335;SHT31;56477;52.742;15.242;2024-03-08T01:10:29;-0.33;89.80
69335;SHT31;56477;52.742;15.242;2024-03-08T01:12:54;-0.31;89.89
69335;SHT31;56477;52.742;15.242;2024-03-08T01:15:23;-0.31;89.81
69335;SHT31;56477;52.742;15.242;2024-03-08T01:17:49;-0.29;89.71
69335;SHT31;56477;52.742;15.242;2024-03-08T01:20:15;-0.33;89.70
69335;SHT31;56477;52.742;15.242;2024-03-08T01:22:41;-0.33;89.72
69335;SHT31;56477;52.742;15.242;2024-03-08T01:25:08;-0.33;89.69
69335;SHT31;56477;52.742;15.242;2024-03-08T01:27:34;-0.29;89.62
69335;SHT31;56477;52.742;15.242;2024-03-08T01:30:01;-0.31;89.78
69335;SHT31;56477;52.742;15.242;2024-03-08T01:32:27;-0.32;89.78
69335;SHT31;56477;52.742;15.242;2024-03-08T01:34:53;-0.31;89.82
69335;SHT31;56477;52.742;15.242;2024-03-08T01:37:19;-0.29;89.88
69335;SHT31;56477;52.742;15.242;2024-03-08T01:39:45;-0.33;89.84
69335;SHT31;56477;52.742;15.242;2024-03-08T01:42:11;-0.33;89.77
69335;SHT31;56477;52.742;15.242;2024-03-08T01:44:39;-0.32;89.71
69335;SHT31;56477;52.742;15.242;2024-03-08T01:47:05;-0.32;89.74
69335;SHT31;56477;52.742;15.242;2024-03-08T01:49:31;-0.38;89.76
69335;SHT31;56477;52.742;15.242;2024-03-08T01:51:57;-0.43;89.84
69335;SHT31;56477;52.742;15.242;2024-03-08T01:54:23;-0.43;89.77
69335;SHT31;56477;52.742;15.242;2024-03-08T01:56:50;-0.46;89.91
69335;SHT31;56477;52.742;15.242;2024-03-08T01:59:16;-0.48;89.85
69335;SHT31;56477;52.742;15.242;2024-03-08T02:01:42;-0.46;90.18
69335;SHT31;56477;52.742;15.242;2024-03-08T02:04:09;-0.41;90.45
69335;SHT31;56477;52.742;15.242;2024-03-08T02:06:35;-0.38;90.32
69335;SHT31;56477;52.742;15.242;2024-03-08T02:09:01;-0.31;90.06
69335;SHT31;56477;52.742;15.242;2024-03-08T02:11:33;-0.31;89.95
69335;SHT31;56477;52.742;15.242;2024-03-08T02:13:59;-0.36;89.91
69335;SHT31;56477;52.742;15.242;2024-03-08T02:16:25;-0.36;89.83
69335;SHT31;56477;52.742;15.242;2024-03-08T02:18:51;-0.39;89.91
69335;SHT31;56477;52.742;15.242;2024-03-08T02:21:17;-0.43;89.84
69335;SHT31;56477;52.742;15.242;2024-03-08T02:23:44;-0.46;90.19
69335;SHT31;56477;52.742;15.242;2024-03-08T02:26:10;-0.51;90.19
69335;SHT31;56477;52.742;15.242;2024-03-08T02:28:36;-0.56;90.16
69335;SHT31;56477;52.742;15.242;2024-03-08T02:31:02;-0.58;90.19
69335;SHT31;56477;52.742;15.242;2024-03-08T02:33:28;-0.58;90.13
69335;SHT31;56477;52.742;15.242;2024-03-08T02:35:54;-0.56;90.26
69335;SHT31;56477;52.742;15.242;2024-03-08T02:38:22;-0.58;90.21
69335;SHT31;56477;52.742;15.242;2024-03-08T02:40:51;-0.58;90.31
69335;SHT31;56477;52.742;15.242;2024-03-08T02:43:19;-0.62;90.45
69335;SHT31;56477;52.742;15.242;2024-03-08T02:45:45;-0.61;90.32
69335;SHT31;56477;52.742;15.242;2024-03-08T02:48:12;-0.58;90.35
69335;SHT31;56477;52.742;15.242;2024-03-08T02:50:38;-0.62;90.40
69335;SHT31;56477;52.742;15.242;2024-03-08T02:53:06;-0.61;90.49
69335;SHT31;56477;52.742;15.242;2024-03-08T02:55:31;-0.58;90.31
69335;SHT31;56477;52.742;15.242;2024-03-08T02:57:59;-0.56;90.27
69335;SHT31;56477;52.742;15.242;2024-03-08T03:00:24;-0.58;90.34
69335;SHT31;56477;52.742;15.242;2024-03-08T03:02:50;-0.63;90.52
69335;SHT31;56477;52.742;15.242;2024-03-08T03:05:23;-0.62;90.33
69335;SHT31;56477;52.742;15.242;2024-03-08T03:07:49;-0.68;90.30
69335;SHT31;56477;52.742;15.242;2024-03-08T03:10:19;-0.73;90.66
69335;SHT31;56477;52.742;15.242;2024-03-08T03:12:45;-0.77;90.92
69335;SHT31;56477;52.742;15.242;2024-03-08T03:15:12;-0.80;91.01
69335;SHT31;56477;52.742;15.242;2024-03-08T03:17:39;-0.83;90.98
69335;SHT31;56477;52.742;15.242;2024-03-08T03:20:08;-0.86;91.19
69335;SHT31;56477;52.742;15.242;2024-03-08T03:22:38;-0.84;91.44
69335;SHT31;56477;52.742;15.242;2024-03-08T03:25:04;-0.84;91.61
69335;SHT31;56477;52.742;15.242;2024-03-08T03:27:32;-0.84;91.67
69335;SHT31;56477;52.742;15.242;2024-03-08T03:29:58;-0.83;91.54
69335;SHT31;56477;52.742;15.242;2024-03-08T03:32:32;-0.77;91.32
69335;SHT31;56477;52.742;15.242;2024-03-08T03:34:58;-0.83;91.47
69335;SHT31;56477;52.742;15.242;2024-03-08T03:37:24;-0.84;91.46
69335;SHT31;56477;52.742;15.242;2024-03-08T03:39:50;-0.89;91.55
69335;SHT31;56477;52.742;15.242;2024-03-08T03:42:19;-0.87;91.68
69335;SHT31;56477;52.742;15.242;2024-03-08T03:44:48;-0.91;91.89
69335;SHT31;56477;52.742;15.242;2024-03-08T03:47:15;-0.91;92.23
69335;SHT31;56477;52.742;15.242;2024-03-08T03:49:41;-0.91;92.16
69335;SHT31;56477;52.742;15.242;2024-03-08T03:52:07;-0.96;92.05
69335;SHT31;56477;52.742;15.242;2024-03-08T03:54:33;-0.93;91.82
69335;SHT31;56477;52.742;15.242;2024-03-08T03:56:59;-0.94;91.87
69335;SHT31;56477;52.742;15.242;2024-03-08T03:59:26;-1.00;91.94
69335;SHT31;56477;52.742;15.242;2024-03-08T04:01:53;-1.04;92.29
69335;SHT31;56477;52.742;15.242;2024-03-08T04:04:20;-1.10;92.26
69335;SHT31;56477;52.742;15.242;2024-03-08T04:06:46;-1.11;92.51
69335;SHT31;56477;52.742;15.242;2024-03-08T04:09:12;-1.08;92.58
69335;SHT31;56477;52.742;15.242;2024-03-08T04:11:39;-1.01;92.52
69335;SHT31;56477;52.742;15.242;2024-03-08T04:14:04;-1.03;92.66
69335;SHT31;56477;52.742;15.242;2024-03-08T04:16:31;-1.04;92.84
69335;SHT31;56477;52.742;15.242;2024-03-08T04:18:59;-1.10;92.75
69335;SHT31;56477;52.742;15.242;2024-03-08T04:21:30;-1.14;92.82
69335;SHT31;56477;52.742;15.242;2024-03-08T04:23:55;-1.11;92.81
69335;SHT31;56477;52.742;15.242;2024-03-08T04:26:22;-1.14;92.89
69335;SHT31;56477;52.742;15.242;2024-03-08T04:28:48;-1.14;92.94
69335;SHT31;56477;52.742;15.242;2024-03-08T04:31:14;-1.17;93.00
69335;SHT31;56477;52.742;15.242;2024-03-08T04:33:41;-1.21;93.08
69335;SHT31;56477;52.742;15.242;2024-03-08T04:36:07;-1.20;93.11
69335;SHT31;56477;52.742;15.242;2024-03-08T04:38:33;-1.22;93.06
69335;SHT31;56477;52.742;15.242;2024-03-08T04:40:59;-1.24;93.07
69335;SHT31;56477;52.742;15.242;2024-03-08T04:43:27;-1.25;93.19
69335;SHT31;56477;52.742;15.242;2024-03-08T04:45:56;-1.25;93.27
69335;SHT31;56477;52.742;15.242;2024-03-08T04:48:21;-1.28;93.28
69335;SHT31;56477;52.742;15.242;2024-03-08T04:50:47;-1.30;93.30
69335;SHT31;56477;52.742;15.242;2024-03-08T04:53:13;-1.30;93.28
69335;SHT31;56477;52.742;15.242;2024-03-08T04:55:39;-1.30;93.33
69335;SHT31;56477;52.742;15.242;2024-03-08T04:58:05;-1.31;93.48
69335;SHT31;56477;52.742;15.242;2024-03-08T05:00:33;-1.31;93.53
69335;SHT31;56477;52.742;15.242;2024-03-08T05:02:59;-1.30;93.52
69335;SHT31;56477;52.742;15.242;2024-03-08T05:05:25;-1.32;93.57
69335;SHT31;56477;52.742;15.242;2024-03-08T05:07:53;-1.34;93.56
69335;SHT31;56477;52.742;15.242;2024-03-08T05:10:19;-1.34;93.71
69335;SHT31;56477;52.742;15.242;2024-03-08T05:12:45;-1.31;93.78
69335;SHT31;56477;52.742;15.242;2024-03-08T05:15:11;-1.35;93.70
69335;SHT31;56477;52.742;15.242;2024-03-08T05:17:37;-1.32;93.73
69335;SHT31;56477;52.742;15.242;2024-03-08T05:20:03;-1.37;93.76
69335;SHT31;56477;52.742;15.242;2024-03-08T05:22:29;-1.41;93.90
69335;SHT31;56477;52.742;15.242;2024-03-08T05:24:55;-1.42;93.85
69335;SHT31;56477;52.742;15.242;2024-03-08T05:27:21;-1.47;93.86
69335;SHT31;56477;52.742;15.242;2024-03-08T05:29:47;-1.48;93.81
69335;SHT31;56477;52.742;15.242;2024-03-08T05:32:13;-1.51;93.85
69335;SHT31;56477;52.742;15.242;2024-03-08T05:34:40;-1.51;94.05
69335;SHT31;56477;52.742;15.242;2024-03-08T05:37:05;-1.49;94.05
69335;SHT31;56477;52.742;15.242;2024-03-08T05:39:32;-1.47;93.99
69335;SHT31;56477;52.742;15.242;2024-03-08T05:41:58;-1.47;94.07
69335;SHT31;56477;52.742;15.242;2024-03-08T05:44:24;-1.47;93.96
69335;SHT31;56477;52.742;15.242;2024-03-08T05:46:50;-1.45;94.07
69335;SHT31;56477;52.742;15.242;2024-03-08T05:49:16;-1.48;94.16
69335;SHT31;56477;52.742;15.242;2024-03-08T05:51:42;-1.47;94.20
69335;SHT31;56477;52.742;15.242;2024-03-08T05:54:09;-1.44;94.21
69335;SHT31;56477;52.742;15.242;2024-03-08T05:56:39;-1.40;94.09
69335;SHT31;56477;52.742;15.242;2024-03-08T05:59:07;-1.34;93.94
69335;SHT31;56477;52.742;15.242;2024-03-08T06:01:33;-1.30;93.79
69335;SHT31;56477;52.742;15.242;2024-03-08T06:04:02;-1.32;93.85
69335;SHT31;56477;52.742;15.242;2024-03-08T06:06:29;-1.28;93.73
69335;SHT31;56477;52.742;15.242;2024-03-08T06:08:55;-1.24;93.69
69335;SHT31;56477;52.742;15.242;2024-03-08T06:11:25;-1.18;93.51
69335;SHT31;56477;52.742;15.242;2024-03-08T06:13:55;-1.12;93.42
69335;SHT31;56477;52.742;15.242;2024-03-08T06:16:28;-1.05;93.39
69335;SHT31;56477;52.742;15.242;2024-03-08T06:18:57;-0.99;93.21
69335;SHT31;56477;52.742;15.242;2024-03-08T06:21:26;-0.87;93.01
69335;SHT31;56477;52.742;15.242;2024-03-08T06:23:55;-0.72;92.88
69335;SHT31;56477;52.742;15.242;2024-03-08T06:26:24;-0.55;92.14
69335;SHT31;56477;52.742;15.242;2024-03-08T06:28:50;-0.29;91.71
69335;SHT31;56477;52.742;15.242;2024-03-08T06:31:16;0.21;91.05
69335;SHT31;56477;52.742;15.242;2024-03-08T06:33:42;0.88;89.62
69335;SHT31;56477;52.742;15.242;2024-03-08T06:36:09;1.23;85.92
69335;SHT31;56477;52.742;15.242;2024-03-08T06:38:34;1.98;84.55
69335;SHT31;56477;52.742;15.242;2024-03-08T06:41:00;2.36;81.59
69335;SHT31;56477;52.742;15.242;2024-03-08T06:43:29;3.22;80.41
69335;SHT31;56477;52.742;15.242;2024-03-08T06:46:00;3.59;77.17
69335;SHT31;56477;52.742;15.242;2024-03-08T06:48:25;4.39;75.12
69335;SHT31;56477;52.742;15.242;2024-03-08T06:50:51;5.06;72.92
69335;SHT31;56477;52.742;15.242;2024-03-08T06:53:17;5.27;71.20
69335;SHT31;56477;52.742;15.242;2024-03-08T06:55:45;5.65;71.14
69335;SHT31;56477;52.742;15.242;2024-03-08T06:58:10;4.77;72.38
69335;SHT31;56477;52.742;15.242;2024-03-08T07:00:37;5.65;69.74
69335;SHT31;56477;52.742;15.242;2024-03-08T07:03:03;6.07;68.14
69335;SHT31;56477;52.742;15.242;2024-03-08T07:05:29;6.27;68.59
69335;SHT31;56477;52.742;15.242;2024-03-08T07:07:56;6.24;68.28
69335;SHT31;56477;52.742;15.242;2024-03-08T07:10:22;4.81;69.82
69335;SHT31;56477;52.742;15.242;2024-03-08T07:12:52;5.39;70.30
69335;SHT31;56477;52.742;15.242;2024-03-08T07:15:21;6.65;68.13
69335;SHT31;56477;52.742;15.242;2024-03-08T07:17:49;6.09;66.96
69335;SHT31;56477;52.742;15.242;2024-03-08T07:20:15;6.14;67.68
69335;SHT31;56477;52.742;15.242;2024-03-08T07:22:47;5.03;70.31
69335;SHT31;56477;52.742;15.242;2024-03-08T07:25:14;5.37;69.33
69335;SHT31;56477;52.742;15.242;2024-03-08T07:27:51;5.47;70.90
69335;SHT31;56477;52.742;15.242;2024-03-08T07:30:19;4.70;71.22
69335;SHT31;56477;52.742;15.242;2024-03-08T07:33:04;5.68;69.87
69335;SHT31;56477;52.742;15.242;2024-03-08T07:35:33;6.34;68.84
69335;SHT31;56477;52.742;15.242;2024-03-08T07:37:58;5.80;68.79
69335;SHT31;56477;52.742;15.242;2024-03-08T07:40:26;5.70;70.49
69335;SHT31;56477;52.742;15.242;2024-03-08T07:42:51;5.59;69.39
69335;SHT31;56477;52.742;15.242;2024-03-08T07:45:18;5.83;69.12
69335;SHT31;56477;52.742;15.242;2024-03-08T07:47:43;6.24;68.04
69335;SHT31;56477;52.742;15.242;2024-03-08T07:50:10;6.86;67.37
69335;SHT31;56477;52.742;15.242;2024-03-08T07:52:35;6.74;67.02
69335;SHT31;56477;52.742;15.242;2024-03-08T07:55:04;7.42;65.03
69335;SHT31;56477;52.742;15.242;2024-03-08T07:57:31;7.28;64.83
69335;SHT31;56477;52.742;15.242;2024-03-08T07:59:57;7.55;62.53
69335;SHT31;56477;52.742;15.242;2024-03-08T08:02:23;7.26;66.17
69335;SHT31;56477;52.742;15.242;2024-03-08T08:04:49;8.37;63.15
69335;SHT31;56477;52.742;15.242;2024-03-08T08:07:15;8.98;60.83
69335;SHT31;56477;52.742;15.242;2024-03-08T08:09:41;8.80;60.31
69335;SHT31;56477;52.742;15.242;2024-03-08T08:12:08;8.92;59.96
69335;SHT31;56477;52.742;15.242;2024-03-08T08:14:38;9.29;58.61
69335;SHT31;56477;52.742;15.242;2024-03-08T08:17:04;8.59;59.17
69335;SHT31;56477;52.742;15.242;2024-03-08T08:19:31;9.77;57.18
69335;SHT31;56477;52.742;15.242;2024-03-08T08:21:57;10.39;55.60
69335;SHT31;56477;52.742;15.242;2024-03-08T08:24:23;9.33;58.28
69335;SHT31;56477;52.742;15.242;2024-03-08T08:26:49;9.04;58.06
69335;SHT31;56477;52.742;15.242;2024-03-08T08:29:16;9.90;56.46
69335;SHT31;56477;52.742;15.242;2024-03-08T08:31:41;10.01;57.78
69335;SHT31;56477;52.742;15.242;2024-03-08T08:34:11;10.19;54.97
69335;SHT31;56477;52.742;15.242;2024-03-08T08:36:37;10.31;55.67
69335;SHT31;56477;52.742;15.242;2024-03-08T08:39:05;10.19;56.39
69335;SHT31;56477;52.742;15.242;2024-03-08T08:41:37;10.67;54.15
69335;SHT31;56477;52.742;15.242;2024-03-08T08:44:03;10.07;56.78
69335;SHT31;56477;52.742;15.242;2024-03-08T08:46:29;10.24;55.09
69335;SHT31;56477;52.742;15.242;2024-03-08T08:48:55;9.77;56.57
69335;SHT31;56477;52.742;15.242;2024-03-08T08:51:21;9.81;56.18
69335;SHT31;56477;52.742;15.242;2024-03-08T08:53:48;8.33;58.42
69335;SHT31;56477;52.742;15.242;2024-03-08T08:56:14;8.67;59.32
69335;SHT31;56477;52.742;15.242;2024-03-08T08:58:44;9.38;57.13
69335;SHT31;56477;52.742;15.242;2024-03-08T09:01:10;8.72;58.96
69335;SHT31;56477;52.742;15.242;2024-03-08T09:03:40;8.87;59.15
69335;SHT31;56477;52.742;15.242;2024-03-08T09:06:07;8.23;59.96
69335;SHT31;56477;52.742;15.242;2024-03-08T09:08:36;9.29;58.00
69335;SHT31;56477;52.742;15.242;2024-03-08T09:11:03;9.56;55.79
69335;SHT31;56477;52.742;15.242;2024-03-08T09:13:30;9.32;57.20
69335;SHT31;56477;52.742;15.242;2024-03-08T09:15:56;8.37;59.20
69335;SHT31;56477;52.742;15.242;2024-03-08T09:18:22;8.80;59.49
69335;SHT31;56477;52.742;15.242;2024-03-08T09:20:49;8.14;60.59
69335;SHT31;56477;52.742;15.242;2024-03-08T09:23:19;7.79;63.05
69335;SHT31;56477;52.742;15.242;2024-03-08T09:25:45;8.30;62.02
69335;SHT31;56477;52.742;15.242;2024-03-08T09:28:12;9.02;60.17
69335;SHT31;56477;52.742;15.242;2024-03-08T09:30:38;9.53;59.21
69335;SHT31;56477;52.742;15.242;2024-03-08T09:33:05;10.12;56.58
69335;SHT31;56477;52.742;15.242;2024-03-08T09:35:32;9.64;57.74
69335;SHT31;56477;52.742;15.242;2024-03-08T09:37:58;9.47;57.67
69335;SHT31;56477;52.742;15.242;2024-03-08T09:40:24;9.59;56.78
69335;SHT31;56477;52.742;15.242;2024-03-08T09:42:51;9.71;58.15
69335;SHT31;56477;52.742;15.242;2024-03-08T09:45:20;9.60;57.93
69335;SHT31;56477;52.742;15.242;2024-03-08T09:47:48;9.09;57.64
69335;SHT31;56477;52.742;15.242;2024-03-08T09:50:17;9.84;57.00
69335;SHT31;56477;52.742;15.242;2024-03-08T09:52:47;10.24;57.46
69335;SHT31;56477;52.742;15.242;2024-03-08T09:55:15;9.73;57.62
69335;SHT31;56477;52.742;15.242;2024-03-08T09:57:43;8.80;57.59
69335;SHT31;56477;52.742;15.242;2024-03-08T10:00:29;9.30;58.00
69335;SHT31;56477;52.742;15.242;2024-03-08T10:03:01;9.02;59.89
69335;SHT31;56477;52.742;15.242;2024-03-08T10:05:27;9.83;56.94
69335;SHT31;56477;52.742;15.242;2024-03-08T10:07:56;9.87;55.72
69335;SHT31;56477;52.742;15.242;2024-03-08T10:10:22;9.51;57.86
69335;SHT31;56477;52.742;15.242;2024-03-08T10:12:48;9.57;56.81
69335;SHT31;56477;52.742;15.242;2024-03-08T10:15:16;9.23;57.77
69335;SHT31;56477;52.742;15.242;2024-03-08T10:17:46;9.97;56.53
69335;SHT31;56477;52.742;15.242;2024-03-08T10:20:17;10.44;55.78
69335;SHT31;56477;52.742;15.242;2024-03-08T10:22:43;9.08;57.39
69335;SHT31;56477;52.742;15.242;2024-03-08T10:25:12;9.76;57.25
69335;SHT31;56477;52.742;15.242;2024-03-08T10:27:39;9.50;57.20
69335;SHT31;56477;52.742;15.242;2024-03-08T10:30:14;9.46;57.77
69335;SHT31;56477;52.742;15.242;2024-03-08T10:32:41;10.07;55.78
69335;SHT31;56477;52.742;15.242;2024-03-08T10:35:10;10.39;56.00
69335;SHT31;56477;52.742;15.242;2024-03-08T10:37:46;10.31;55.32
69335;SHT31;56477;52.742;15.242;2024-03-08T10:40:19;10.42;54.16
69335;SHT31;56477;52.742;15.242;2024-03-08T10:42:53;10.07;54.78
69335;SHT31;56477;52.742;15.242;2024-03-08T10:45:39;10.14;54.45
69335;SHT31;56477;52.742;15.242;2024-03-08T10:50:46;10.59;55.25
69335;SHT31;56477;52.742;15.242;2024-03-08T10:53:15;10.49;52.90
69335;SHT31;56477;52.742;15.242;2024-03-08T10:55:42;10.27;52.85
69335;SHT31;56477;52.742;15.242;2024-03-08T10:58:08;10.38;52.87
69335;SHT31;56477;52.742;15.242;2024-03-08T11:00:35;10.60;51.46
69335;SHT31;56477;52.742;15.242;2024-03-08T11:03:01;9.66;53.96
69335;SHT31;56477;52.742;15.242;2024-03-08T11:05:39;9.86;53.03
69335;SHT31;56477;52.742;15.242;2024-03-08T11:08:18;9.51;53.58
69335;SHT31;56477;52.742;15.242;2024-03-08T11:10:51;10.31;53.27
69335;SHT31;56477;52.742;15.242;2024-03-08T11:13:38;9.77;53.09
69335;SHT31;56477;52.742;15.242;2024-03-08T11:18:53;9.36;53.89
69335;SHT31;56477;52.742;15.242;2024-03-08T11:21:19;9.67;52.59
69335;SHT31;56477;52.742;15.242;2024-03-08T11:24:07;9.44;51.76
69335;SHT31;56477;52.742;15.242;2024-03-08T11:26:33;9.83;52.67
69335;SHT31;56477;52.742;15.242;2024-03-08T11:29:32;9.81;51.90
69335;SHT31;56477;52.742;15.242;2024-03-08T11:32:07;10.01;52.15
69335;SHT31;56477;52.742;15.242;2024-03-08T11:34:35;9.59;52.54
69335;SHT31;56477;52.742;15.242;2024-03-08T11:37:03;9.79;54.12
69335;SHT31;56477;52.742;15.242;2024-03-08T11:39:30;10.32;52.16
69335;SHT31;56477;52.742;15.242;2024-03-08T11:41:56;10.14;51.91
69335;SHT31;56477;52.742;15.242;2024-03-08T11:44:26;10.65;51.72
69335;SHT31;56477;52.742;15.242;2024-03-08T11:46:53;10.56;51.01
69335;SHT31;56477;52.742;15.242;2024-03-08T11:49:19;10.60;51.10
69335;SHT31;56477;52.742;15.242;2024-03-08T11:51:46;11.52;49.33
69335;SHT31;56477;52.742;15.242;2024-03-08T11:54:12;12.14;47.78
69335;SHT31;56477;52.742;15.242;2024-03-08T11:56:38;10.90;48.93
69335;SHT31;56477;52.742;15.242;2024-03-08T11:59:04;11.04;48.64
69335;SHT31;56477;52.742;15.242;2024-03-08T12:01:30;10.58;49.38
69335;SHT31;56477;52.742;15.242;2024-03-08T12:03:57;10.92;49.47
69335;SHT31;56477;52.742;15.242;2024-03-08T12:06:27;10.95;49.54
69335;SHT31;56477;52.742;15.242;2024-03-08T12:09:02;11.13;49.41
69335;SHT31;56477;52.742;15.242;2024-03-08T12:11:28;11.11;47.16
69335;SHT31;56477;52.742;15.242;2024-03-08T12:13:54;11.01;48.64
69335;SHT31;56477;52.742;15.242;2024-03-08T12:16:20;10.70;50.09
69335;SHT31;56477;52.742;15.242;2024-03-08T12:18:51;10.49;48.89
69335;SHT31;56477;52.742;15.242;2024-03-08T12:21:17;10.56;49.51
69335;SHT31;56477;52.742;15.242;2024-03-08T12:23:46;11.10;49.98
69335;SHT31;56477;52.742;15.242;2024-03-08T12:26:24;11.68;47.11
69335;SHT31;56477;52.742;15.242;2024-03-08T12:28:52;11.54;46.81
69335;SHT31;56477;52.742;15.242;2024-03-08T12:31:18;10.41;48.33
69335;SHT31;56477;52.742;15.242;2024-03-08T12:33:49;10.72;48.12
69335;SHT31;56477;52.742;15.242;2024-03-08T12:36:16;11.41;48.22
69335;SHT31;56477;52.742;15.242;2024-03-08T12:38:49;11.48;46.82
69335;SHT31;56477;52.742;15.242;2024-03-08T12:41:18;11.21;46.50
69335;SHT31;56477;52.742;15.242;2024-03-08T12:43:46;10.52;47.92
69335;SHT31;56477;52.742;15.242;2024-03-08T12:46:18;11.42;46.85
69335;SHT31;56477;52.742;15.242;2024-03-08T12:48:46;11.37;46.01
69335;SHT31;56477;52.742;15.242;2024-03-08T12:51:18;11.10;46.08
69335;SHT31;56477;52.742;15.242;2024-03-08T12:53:45;10.11;47.94
69335;SHT31;56477;52.742;15.242;2024-03-08T12:56:29;10.83;46.69
69335;SHT31;56477;52.742;15.242;2024-03-08T12:58:56;11.59;47.13
69335;SHT31;56477;52.742;15.242;2024-03-08T13:01:22;11.78;44.70
69335;SHT31;56477;52.742;15.242;2024-03-08T13:03:48;11.64;45.34
69335;SHT31;56477;52.742;15.242;2024-03-08T13:06:15;10.96;46.52
69335;SHT31;56477;52.742;15.242;2024-03-08T13:08:41;10.90;47.23
69335;SHT31;56477;52.742;15.242;2024-03-08T13:11:09;11.16;46.90
69335;SHT31;56477;52.742;15.242;2024-03-08T13:13:40;11.11;47.83
69335;SHT31;56477;52.742;15.242;2024-03-08T13:16:06;11.61;47.63
69335;SHT31;56477;52.742;15.242;2024-03-08T13:18:36;11.64;45.95
69335;SHT31;56477;52.742;15.242;2024-03-08T13:21:03;12.77;44.01
69335;SHT31;56477;52.742;15.242;2024-03-08T13:23:34;11.85;43.74
69335;SHT31;56477;52.742;15.242;2024-03-08T13:26:10;11.21;45.99
69335;SHT31;56477;52.742;15.242;2024-03-08T13:28:46;11.83;45.79
69335;SHT31;56477;52.742;15.242;2024-03-08T13:31:12;11.21;46.80
69335;SHT31;56477;52.742;15.242;2024-03-08T13:33:41;11.65;47.08
69335;SHT31;56477;52.742;15.242;2024-03-08T13:36:12;11.46;46.05
69335;SHT31;56477;52.742;15.242;2024-03-08T13:38:48;11.57;44.07
69335;SHT31;56477;52.742;15.242;2024-03-08T13:41:14;11.92;44.08
69335;SHT31;56477;52.742;15.242;2024-03-08T13:43:46;12.04;44.49
69335;SHT31;56477;52.742;15.242;2024-03-08T13:46:12;12.31;43.61
69335;SHT31;56477;52.742;15.242;2024-03-08T13:48:38;12.30;44.41
69335;SHT31;56477;52.742;15.242;2024-03-08T13:51:05;12.74;42.03
69335;SHT31;56477;52.742;15.242;2024-03-08T13:53:32;13.10;42.70
69335;SHT31;56477;52.742;15.242;2024-03-08T13:56:02;13.33;41.58
69335;SHT31;56477;52.742;15.242;2024-03-08T13:58:28;12.44;41.96
69335;SHT31;56477;52.742;15.242;2024-03-08T14:00:54;12.38;41.29
69335;SHT31;56477;52.742;15.242;2024-03-08T14:03:21;13.10;40.66
69335;SHT31;56477;52.742;15.242;2024-03-08T14:05:47;12.30;43.37
69335;SHT31;56477;52.742;15.242;2024-03-08T14:08:13;12.14;43.13
69335;SHT31;56477;52.742;15.242;2024-03-08T14:10:39;11.92;42.84
69335;SHT31;56477;52.742;15.242;2024-03-08T14:13:06;11.83;44.31
69335;SHT31;56477;52.742;15.242;2024-03-08T14:15:32;11.55;44.66
69335;SHT31;56477;52.742;15.242;2024-03-08T14:17:59;11.55;45.17
69335;SHT31;56477;52.742;15.242;2024-03-08T14:20:25;11.59;45.15
69335;SHT31;56477;52.742;15.242;2024-03-08T14:22:54;11.81;45.00
69335;SHT31;56477;52.742;15.242;2024-03-08T14:25:21;11.55;45.36
69335;SHT31;56477;52.742;15.242;2024-03-08T14:27:50;11.68;44.89
69335;SHT31;56477;52.742;15.242;2024-03-08T14:30:20;11.68;44.20
69335;SHT31;56477;52.742;15.242;2024-03-08T14:32:58;11.86;44.32
69335;SHT31;56477;52.742;15.242;2024-03-08T14:35:25;12.12;44.90
69335;SHT31;56477;52.742;15.242;2024-03-08T14:37:52;12.02;44.08
69335;SHT31;56477;52.742;15.242;2024-03-08T14:40:18;11.61;45.81
69335;SHT31;56477;52.742;15.242;2024-03-08T14:42:48;11.92;45.17
69335;SHT31;56477;52.742;15.242;2024-03-08T14:45:17;11.66;44.83
69335;SHT31;56477;52.742;15.242;2024-03-08T14:47:46;11.79;45.07
69335;SHT31;56477;52.742;15.242;2024-03-08T14:50:19;12.29;44.14
69335;SHT31;56477;52.742;15.242;2024-03-08T14:52:46;12.03;44.33
69335;SHT31;56477;52.742;15.242;2024-03-08T14:55:15;11.65;45.05
69335;SHT31;56477;52.742;15.242;2024-03-08T14:57:43;11.97;44.54
69335;SHT31;56477;52.742;15.242;2024-03-08T15:00:13;11.35;45.38
69335;SHT31;56477;52.742;15.242;2024-03-08T15:02:43;11.25;45.98
69335;SHT31;56477;52.742;15.242;2024-03-08T15:05:09;11.13;45.88
69335;SHT31;56477;52.742;15.242;2024-03-08T15:07:38;11.16;46.00
69335;SHT31;56477;52.742;15.242;2024-03-08T15:10:08;11.27;45.57
69335;SHT31;56477;52.742;15.242;2024-03-08T15:12:38;11.28;45.75
69335;SHT31;56477;52.742;15.242;2024-03-08T15:15:08;11.24;46.39
69335;SHT31;56477;52.742;15.242;2024-03-08T15:17:34;10.72;47.90
69335;SHT31;56477;52.742;15.242;2024-03-08T15:20:02;11.39;46.71
69335;SHT31;56477;52.742;15.242;2024-03-08T15:22:29;11.42;45.80
69335;SHT31;56477;52.742;15.242;2024-03-08T15:24:55;10.59;46.69
69335;SHT31;56477;52.742;15.242;2024-03-08T15:27:24;10.77;46.58
69335;SHT31;56477;52.742;15.242;2024-03-08T15:29:50;10.19;48.44